Time;durP1;ratioP1;P1;durP2;ratioP2;P2;SDS_P1;SDS_P2;PMS_P1;PMS_P2;Temp;Humidity;BMP_temperature;BMP_pressure;BME280_temperature;BME280_humidity;BME280_pressure;Samples;Min_cycle;Max_cycle;Signal;HPM_P1;HPM_P2
2023/09/13 00:03:51;;;;;;;43.65;26.38;;;;;;;;;;8227870;28;20182;-94
2023/09/13 00:07:55;;;;;;;45.55;26.30;;;;;;;;;;8225365;28;20065;-91
2023/09/13 00:11:58;;;;;;;48.00;26.88;;;;;;;;;;8228125;28;20059;-92
2023/09/13 00:16:06;;;;;;;43.65;25.52;;;;;;;;;;8229939;28;20110;-93
2023/09/13 00:20:10;;;;;;;46.00;26.13;;;;;;;;;;8196214;29;20105;-91
2023/09/13 00:24:13;;;;;;;45.15;27.17;;;;;;;;;;8208524;28;20142;-91
2023/09/13 00:28:16;;;;;;;37.78;24.58;;;;;;;;;;8205605;28;20061;-93
2023/09/13 00:32:20;;;;;;;42.10;23.80;;;;;;;;;;8230261;28;20051;-91
2023/09/13 00:36:23;;;;;;;37.33;23.95;;;;;;;;;;8307613;28;20567;-91
2023/09/13 00:40:32;;;;;;;41.25;25.10;;;;;;;;;;8363475;28;20554;-94
2023/09/13 00:44:35;;;;;;;35.60;23.30;;;;;;;;;;8350248;28;20045;-91
2023/09/13 00:48:43;;;;;;;41.67;25.13;;;;;;;;;;8359794;28;20539;-92
2023/09/13 00:52:47;;;;;;;40.58;25.25;;;;;;;;;;8389779;23;20059;-92
2023/09/13 00:56:52;;;;;;;38.85;24.10;;;;;;;;;;8426970;28;20055;-92
2023/09/13 01:00:56;;;;;;;40.78;25.55;;;;;;;;;;8426930;28;20044;-93
2023/09/13 01:05:03;;;;;;;39.15;24.63;;;;;;;;;;8429931;28;20074;-93
2023/09/13 01:09:37;;;;;;;38.22;24.75;;;;;;;;;;8442069;28;20047;-92
2023/09/13 01:13:40;;;;;;;35.90;23.63;;;;;;;;;;8421793;28;20058;-91
2023/09/13 01:23:22;;;;;;;40.15;24.35;;;;;;;;;;8408955;28;20123;-91
2023/09/13 01:27:39;;;;;;;40.30;24.85;;;;;;;;;;8398256;28;20202;-91
2023/09/13 01:31:44;;;;;;;39.40;25.42;;;;;;;;;;8411246;28;20048;-93
2023/09/13 01:35:47;;;;;;;37.65;23.10;;;;;;;;;;8410544;28;20040;-94
2023/09/13 01:39:50;;;;;;;37.20;24.25;;;;;;;;;;8433399;28;20063;-92
2023/09/13 01:43:54;;;;;;;38.53;25.38;;;;;;;;;;8402148;28;20063;-90
2023/09/13 01:48:00;;;;;;;38.40;24.02;;;;;;;;;;8420532;28;20073;-93
2023/09/13 01:52:05;;;;;;;41.90;25.40;;;;;;;;;;8417868;28;20446;-95
2023/09/13 01:56:08;;;;;;;36.90;23.98;;;;;;;;;;8422266;28;20056;-90
2023/09/13 02:00:12;;;;;;;36.95;23.75;;;;;;;;;;8394260;28;20056;-91
2023/09/13 02:04:24;;;;;;;34.58;23.35;;;;;;;;;;8419789;28;20446;-92
2023/09/13 02:08:27;;;;;;;35.65;22.77;;;;;;;;;;8433392;28;20058;-93
2023/09/13 02:12:30;;;;;;;36.20;23.73;;;;;;;;;;8446091;28;20094;-95
2023/09/13 02:16:33;;;;;;;39.72;23.00;;;;;;;;;;8407041;28;20519;-91
2023/09/13 02:25:03;;;;;;;34.15;22.65;;;;;;;;;;8444653;28;20055;-91
2023/09/13 02:29:06;;;;;;;41.33;23.58;;;;;;;;;;8428348;28;20052;-92
2023/09/13 02:33:11;;;;;;;36.20;23.92;;;;;;;;;;8427827;28;20048;-91
2023/09/13 02:37:18;;;;;;;38.65;24.75;;;;;;;;;;8419153;28;20054;-92
2023/09/13 02:41:22;;;;;;;37.75;23.48;;;;;;;;;;8432782;28;20043;-94
2023/09/13 02:45:26;;;;;;;44.97;25.85;;;;;;;;;;8434570;28;20039;-91
2023/09/13 02:49:29;;;;;;;39.67;24.45;;;;;;;;;;8426324;28;20036;-92
2023/09/13 02:53:35;;;;;;;37.85;22.92;;;;;;;;;;8439534;28;20105;-94
2023/09/13 02:57:38;;;;;;;33.80;22.27;;;;;;;;;;8413863;28;20051;-91
2023/09/13 03:01:53;;;;;;;34.53;22.45;;;;;;;;;;8417079;28;20576;-92
2023/09/13 03:06:05;;;;;;;35.70;22.92;;;;;;;;;;8426581;28;20051;-93
2023/09/13 03:10:11;;;;;;;38.42;24.67;;;;;;;;;;8436097;28;20123;-93
2023/09/13 03:14:14;;;;;;;38.78;23.67;;;;;;;;;;8418791;28;20056;-92
2023/09/13 03:18:17;;;;;;;36.67;22.65;;;;;;;;;;8432519;28;20045;-91
2023/09/13 03:22:20;;;;;;;38.10;24.33;;;;;;;;;;8452026;28;20087;-91
2023/09/13 03:26:26;;;;;;;40.10;24.55;;;;;;;;;;8420235;28;20079;-91
2023/09/13 03:30:29;;;;;;;43.47;25.15;;;;;;;;;;8439049;28;20080;-91
2023/09/13 03:34:35;;;;;;;35.35;23.08;;;;;;;;;;8399055;28;20078;-91
2023/09/13 03:38:39;;;;;;;32.45;22.15;;;;;;;;;;8420058;28;20049;-95
2023/09/13 03:42:43;;;;;;;36.85;23.70;;;;;;;;;;8413971;28;20055;-95
2023/09/13 03:46:46;;;;;;;34.03;23.00;;;;;;;;;;8433368;28;20048;-92
2023/09/13 03:50:50;;;;;;;36.45;22.38;;;;;;;;;;8446021;28;20048;-92
2023/09/13 03:54:56;;;;;;;34.95;22.80;;;;;;;;;;8373638;28;20596;-91
2023/09/13 03:59:00;;;;;;;34.53;22.42;;;;;;;;;;8378674;28;20052;-91
2023/09/13 04:03:03;;;;;;;35.08;24.17;;;;;;;;;;8402038;28;20063;-92
2023/09/13 04:07:06;;;;;;;36.63;23.25;;;;;;;;;;8417851;28;20059;-93
2023/09/13 04:11:10;;;;;;;35.10;22.60;;;;;;;;;;8401940;28;20044;-93
2023/09/13 04:15:16;;;;;;;32.92;22.88;;;;;;;;;;8394077;28;20044;-91
2023/09/13 04:19:20;;;;;;;36.03;21.92;;;;;;;;;;8393378;28;20044;-91
2023/09/13 04:23:24;;;;;;;27.77;19.15;;;;;;;;;;8396974;28;20396;-94
2023/09/13 04:27:29;;;;;;;31.38;20.85;;;;;;;;;;8402448;28;20082;-92
2023/09/13 04:31:34;;;;;;;29.55;19.75;;;;;;;;;;8398210;28;20557;-92
2023/09/13 04:35:37;;;;;;;29.73;20.20;;;;;;;;;;8409508;28;20045;-90
2023/09/13 04:39:40;;;;;;;26.23;19.85;;;;;;;;;;8384853;28;20132;-91
2023/09/13 04:43:43;;;;;;;30.77;18.50;;;;;;;;;;8383577;28;20045;-92
2023/09/13 04:47:47;;;;;;;27.83;19.85;;;;;;;;;;8387208;28;20048;-92
2023/09/13 04:51:52;;;;;;;29.77;19.02;;;;;;;;;;8394255;28;20463;-93
2023/09/13 04:55:55;;;;;;;32.15;21.73;;;;;;;;;;8393023;28;20523;-92
2023/09/13 04:59:57;;;;;;;29.35;22.65;;;;;;;;;;8395670;28;20045;-92
2023/09/13 05:04:02;;;;;;;30.23;19.55;;;;;;;;;;8382032;28;20470;-92
2023/09/13 05:08:06;;;;;;;32.35;22.90;;;;;;;;;;8407726;28;20123;-92
2023/09/13 05:12:09;;;;;;;28.92;20.27;;;;;;;;;;8389176;28;20040;-92
2023/09/13 05:16:14;;;;;;;27.30;20.50;;;;;;;;;;8407643;28;20078;-92
2023/09/13 05:20:24;;;;;;;29.60;18.25;;;;;;;;;;8397214;28;20125;-93
2023/09/13 05:24:30;;;;;;;39.10;21.02;;;;;;;;;;8405531;28;20056;-93
2023/09/13 05:28:33;;;;;;;32.80;20.48;;;;;;;;;;8390589;28;20563;-94
2023/09/13 05:32:39;;;;;;;29.73;20.10;;;;;;;;;;8408234;28;20131;-94
2023/09/13 05:37:05;;;;;;;38.85;20.95;;;;;;;;;;8398022;28;20049;-94
2023/09/13 05:41:09;;;;;;;28.73;19.23;;;;;;;;;;8389396;28;20450;-92
2023/09/13 05:45:11;;;;;;;35.28;18.10;;;;;;;;;;8402977;28;20079;-93
2023/09/13 05:49:14;;;;;;;38.17;17.75;;;;;;;;;;8413046;28;20068;-92
2023/09/13 05:53:19;;;;;;;34.38;16.73;;;;;;;;;;8406670;28;20067;-91
2023/09/13 05:57:22;;;;;;;37.35;16.60;;;;;;;;;;8443388;28;20039;-93
2023/09/13 06:01:25;;;;;;;39.58;16.45;;;;;;;;;;8436796;28;20127;-92
2023/09/13 06:05:28;;;;;;;31.90;14.10;;;;;;;;;;8430295;28;20076;-92
2023/09/13 06:09:32;;;;;;;47.83;15.13;;;;;;;;;;8432864;28;20055;-92
2023/09/13 06:13:35;;;;;;;32.08;14.88;;;;;;;;;;8427837;28;20044;-92
2023/09/13 06:17:38;;;;;;;33.25;14.32;;;;;;;;;;8411171;28;20055;-93
2023/09/13 06:21:40;;;;;;;36.53;14.35;;;;;;;;;;8432695;28;20044;-93
2023/09/13 06:25:46;;;;;;;25.10;13.50;;;;;;;;;;8410508;28;20127;-93
2023/09/13 06:29:49;;;;;;;40.45;14.48;;;;;;;;;;8418730;28;20070;-92
2023/09/13 06:33:52;;;;;;;48.42;15.05;;;;;;;;;;8414861;28;20052;-93
2023/09/13 06:37:56;;;;;;;55.58;15.50;;;;;;;;;;8432293;28;20078;-93
2023/09/13 06:42:00;;;;;;;53.42;14.32;;;;;;;;;;8414297;28;20055;-94
2023/09/13 06:46:03;;;;;;;49.83;13.65;;;;;;;;;;8431087;28;20070;-93
2023/09/13 06:50:06;;;;;;;39.25;13.60;;;;;;;;;;8414197;28;20067;-93
2023/09/13 06:54:09;;;;;;;48.38;13.63;;;;;;;;;;8411762;28;20135;-93
2023/09/13 06:58:15;;;;;;;48.08;14.38;;;;;;;;;;8386320;28;20054;-92
2023/09/13 07:02:19;;;;;;;48.45;15.15;;;;;;;;;;8405828;28;20469;-93
2023/09/13 07:06:22;;;;;;;48.92;13.70;;;;;;;;;;8410469;28;20048;-92
2023/09/13 07:10:26;;;;;;;56.03;13.77;;;;;;;;;;8422381;23;20477;-91
2023/09/13 07:14:30;;;;;;;51.15;12.65;;;;;;;;;;8430724;28;20484;-91
2023/09/13 07:18:33;;;;;;;43.28;12.98;;;;;;;;;;8430157;28;20044;-91
2023/09/13 07:22:38;;;;;;;33.90;11.52;;;;;;;;;;8430144;28;20048;-92
2023/09/13 07:31:58;;;;;;;14.00;9.55;;;;;;;;;;8418493;28;20043;-90
2023/09/13 07:41:17;;;;;;;13.18;8.80;;;;;;;;;;8434835;28;20047;-89
2023/09/13 07:45:21;;;;;;;14.45;8.65;;;;;;;;;;8437627;28;20044;-90
2023/09/13 07:49:28;;;;;;;27.38;24.27;;;;;;;;;;8411341;28;20047;-90
2023/09/13 07:53:34;;;;;;;10.55;8.60;;;;;;;;;;8429497;28;20553;-89
2023/09/13 07:57:37;;;;;;;11.95;9.43;;;;;;;;;;8428935;28;20047;-89
2023/09/13 08:01:40;;;;;;;11.23;8.77;;;;;;;;;;8429154;28;20047;-89
2023/09/13 08:05:48;;;;;;;14.32;9.27;;;;;;;;;;8411927;28;20056;-89
2023/09/13 08:09:52;;;;;;;11.85;9.18;;;;;;;;;;8394522;28;20213;-88
2023/09/13 08:13:54;;;;;;;11.20;8.40;;;;;;;;;;8395741;28;20068;-89
2023/09/13 08:17:57;;;;;;;14.50;8.38;;;;;;;;;;8394004;28;20064;-89
2023/09/13 08:22:01;;;;;;;13.27;8.18;;;;;;;;;;8394745;28;20044;-87
2023/09/13 08:26:04;;;;;;;13.18;9.00;;;;;;;;;;8395087;28;20103;-88
2023/09/13 08:30:08;;;;;;;9.38;8.18;;;;;;;;;;8395149;28;20053;-91
2023/09/13 08:34:11;;;;;;;13.55;7.93;;;;;;;;;;8393837;28;20055;-89
2023/09/13 08:38:15;;;;;;;11.85;8.35;;;;;;;;;;8394140;28;20045;-89
2023/09/13 08:42:18;;;;;;;14.75;8.73;;;;;;;;;;8395001;28;20127;-89
2023/09/13 08:46:24;;;;;;;12.10;8.60;;;;;;;;;;8394996;28;20044;-89
2023/09/13 08:50:28;;;;;;;14.77;8.73;;;;;;;;;;8394907;28;20469;-89
2023/09/13 08:54:34;;;;;;;15.02;12.82;;;;;;;;;;8383500;28;20192;-88
2023/09/13 08:58:37;;;;;;;18.33;8.55;;;;;;;;;;8375989;28;20059;-87
2023/09/13 09:03:14;;;;;;;11.63;8.10;;;;;;;;;;8387045;28;20052;-93
2023/09/13 09:07:23;;;;;;;14.82;9.07;;;;;;;;;;8385590;28;20135;-89
2023/09/13 09:11:35;;;;;;;13.15;8.27;;;;;;;;;;8419175;28;20032;-90
2023/09/13 09:15:40;;;;;;;10.57;7.60;;;;;;;;;;8404401;28;20048;-90
2023/09/13 09:19:44;;;;;;;9.88;8.35;;;;;;;;;;8400037;28;20482;-89
2023/09/13 09:23:47;;;;;;;9.20;7.72;;;;;;;;;;8408176;28;20299;-90
2023/09/13 09:27:53;;;;;;;14.63;8.93;;;;;;;;;;8391991;28;20110;-89
2023/09/13 09:31:59;;;;;;;9.20;8.13;;;;;;;;;;8388173;28;20098;-90
2023/09/13 09:36:03;;;;;;;13.20;8.85;;;;;;;;;;8393225;28;20564;-90
2023/09/13 09:40:12;;;;;;;17.92;14.27;;;;;;;;;;8406359;28;20415;-90
2023/09/13 09:44:19;;;;;;;13.10;8.25;;;;;;;;;;8394994;28;20126;-89
2023/09/13 09:48:22;;;;;;;13.95;8.63;;;;;;;;;;8395658;28;20056;-89
2023/09/13 09:52:25;;;;;;;15.07;8.02;;;;;;;;;;8395424;28;20059;-91
2023/09/13 09:56:28;;;;;;;16.70;9.13;;;;;;;;;;8391241;28;20403;-88
2023/09/13 10:00:49;;;;;;;10.75;7.82;;;;;;;;;;8408578;28;20076;-91
2023/09/13 10:04:53;;;;;;;12.82;8.25;;;;;;;;;;8402611;28;20402;-90
2023/09/13 10:08:56;;;;;;;16.30;9.95;;;;;;;;;;8423628;28;20510;-91
2023/09/13 10:13:00;;;;;;;12.23;9.10;;;;;;;;;;8393023;28;20101;-90
2023/09/13 10:17:06;;;;;;;12.40;7.95;;;;;;;;;;8377631;28;20109;-90
2023/09/13 10:21:11;;;;;;;10.90;7.72;;;;;;;;;;8419120;28;20037;-89
2023/09/13 10:25:16;;;;;;;10.63;7.82;;;;;;;;;;8417724;28;20052;-90
2023/09/13 10:29:39;;;;;;;10.82;7.18;;;;;;;;;;8456463;28;20055;-90
2023/09/13 10:33:50;;;;;;;13.55;7.50;;;;;;;;;;8451315;28;20047;-89
2023/09/13 10:38:02;;;;;;;18.45;8.00;;;;;;;;;;8446352;28;20412;-89
2023/09/13 10:42:08;;;;;;;11.10;8.07;;;;;;;;;;8424530;28;20044;-91
2023/09/13 10:46:11;;;;;;;10.10;7.50;;;;;;;;;;8439154;28;20051;-89
2023/09/13 10:50:16;;;;;;;12.05;6.85;;;;;;;;;;8429301;28;20141;-90
2023/09/13 10:54:23;;;;;;;13.68;7.80;;;;;;;;;;8423966;28;20484;-89
2023/09/13 10:58:27;;;;;;;13.23;7.57;;;;;;;;;;8407166;28;20059;-88
2023/09/13 11:02:31;;;;;;;14.38;7.97;;;;;;;;;;8387798;28;20058;-89
2023/09/13 11:06:39;;;;;;;13.75;8.10;;;;;;;;;;8405819;28;20064;-90
2023/09/13 11:10:42;;;;;;;20.75;8.70;;;;;;;;;;8380896;28;20174;-90
2023/09/13 11:19:11;;;;;;;15.75;7.97;;;;;;;;;;8403000;28;20082;-89
2023/09/13 11:23:19;;;;;;;12.15;7.57;;;;;;;;;;8409356;28;20043;-89
2023/09/13 11:27:27;;;;;;;11.60;8.15;;;;;;;;;;8407532;28;20048;-88
2023/09/13 11:31:58;;;;;;;16.02;8.00;;;;;;;;;;8382663;28;20110;-89
2023/09/13 11:36:03;;;;;;;13.73;7.25;;;;;;;;;;8407384;28;20052;-89
2023/09/13 11:40:18;;;;;;;11.02;7.15;;;;;;;;;;8388563;28;20818;-90
2023/09/13 11:44:22;;;;;;;12.88;7.78;;;;;;;;;;8395850;28;20058;-90
2023/09/13 11:48:39;;;;;;;12.95;6.70;;;;;;;;;;8378798;28;20079;-88
2023/09/13 11:53:13;;;;;;;13.10;7.20;;;;;;;;;;8384420;28;20451;-89
2023/09/13 11:57:17;;;;;;;12.15;7.28;;;;;;;;;;8411698;23;20101;-88
2023/09/13 12:01:43;;;;;;;16.48;7.45;;;;;;;;;;8323241;23;20148;-89
2023/09/13 12:05:47;;;;;;;18.17;7.63;;;;;;;;;;8313654;28;20050;-90
2023/09/13 12:09:56;;;;;;;13.55;6.95;;;;;;;;;;8301646;28;20172;-89
2023/09/13 12:14:02;;;;;;;10.38;6.60;;;;;;;;;;8304932;28;20460;-89
2023/09/13 12:18:06;;;;;;;15.10;6.93;;;;;;;;;;8302430;28;20061;-89
2023/09/13 12:22:14;;;;;;;12.95;7.57;;;;;;;;;;8320728;28;20127;-89
2023/09/13 12:26:21;;;;;;;16.95;7.90;;;;;;;;;;8307592;28;20080;-89
2023/09/13 12:30:26;;;;;;;20.80;7.40;;;;;;;;;;8314478;28;20072;-88
2023/09/13 12:38:47;;;;;;;11.13;7.57;;;;;;;;;;8316053;28;20057;-89
2023/09/13 12:42:57;;;;;;;11.32;7.47;;;;;;;;;;8307527;28;20049;-88
2023/09/13 12:47:07;;;;;;;13.30;6.88;;;;;;;;;;8287433;28;20085;-90
2023/09/13 12:51:11;;;;;;;13.95;7.43;;;;;;;;;;8323513;28;20085;-89
2023/09/13 12:55:15;;;;;;;10.27;6.63;;;;;;;;;;8310715;28;20048;-90
2023/09/13 12:59:19;;;;;;;12.30;6.90;;;;;;;;;;8322809;28;20136;-88
2023/09/13 13:03:28;;;;;;;12.70;7.15;;;;;;;;;;8322590;28;20045;-88
2023/09/13 13:07:45;;;;;;;10.52;7.03;;;;;;;;;;8306615;28;20434;-88
2023/09/13 13:11:50;;;;;;;11.23;6.97;;;;;;;;;;8305522;28;20057;-88
2023/09/13 13:15:52;;;;;;;13.30;6.80;;;;;;;;;;8298735;28;20061;-89
2023/09/13 13:19:59;;;;;;;13.30;7.80;;;;;;;;;;8326600;28;20075;-88
2023/09/13 13:24:05;;;;;;;10.30;7.07;;;;;;;;;;8297240;28;20505;-89
2023/09/13 13:28:08;;;;;;;10.38;7.13;;;;;;;;;;8315935;28;20053;-89
2023/09/13 13:32:11;;;;;;;10.55;6.90;;;;;;;;;;8365731;22;20060;-87
2023/09/13 13:36:20;;;;;;;10.73;7.57;;;;;;;;;;8354394;23;20647;-90
2023/09/13 13:44:59;;;;;;;10.32;7.10;;;;;;;;;;8335328;28;20160;-89
2023/09/13 13:49:03;;;;;;;30.00;8.07;;;;;;;;;;8341007;28;20041;-89
2023/09/13 13:53:09;;;;;;;12.02;8.07;;;;;;;;;;8311909;28;20053;-89
2023/09/13 13:57:13;;;;;;;9.93;7.38;;;;;;;;;;8336061;28;20065;-88
2023/09/13 14:01:18;;;;;;;11.10;7.25;;;;;;;;;;8345974;28;20037;-89
2023/09/13 14:05:22;;;;;;;11.88;7.90;;;;;;;;;;8347027;28;20084;-89
2023/09/13 14:09:29;;;;;;;13.15;7.95;;;;;;;;;;8338463;28;20045;-90
2023/09/13 14:13:33;;;;;;;13.52;7.85;;;;;;;;;;8322910;28;20136;-89
2023/09/13 14:17:38;;;;;;;13.93;7.90;;;;;;;;;;8326234;28;20489;-89
2023/09/13 14:21:42;;;;;;;12.88;8.48;;;;;;;;;;8314313;28;20069;-89
2023/09/13 14:25:48;;;;;;;12.55;8.70;;;;;;;;;;8346133;28;20060;-90
2023/09/13 14:29:52;;;;;;;14.20;8.77;;;;;;;;;;8317767;28;20140;-89
2023/09/13 14:33:56;;;;;;;14.48;7.90;;;;;;;;;;8314143;28;20480;-89
2023/09/13 14:38:00;;;;;;;11.10;8.00;;;;;;;;;;8352149;23;20500;-90
2023/09/13 14:42:07;;;;;;;13.30;8.75;;;;;;;;;;8402576;28;20128;-89
2023/09/13 14:50:50;;;;;;;16.80;9.70;;;;;;;;;;8403536;28;20068;-88
2023/09/13 14:54:53;;;;;;;18.05;9.80;;;;;;;;;;8394156;28;20181;-88
2023/09/13 14:59:00;;;;;;;16.17;8.90;;;;;;;;;;8405248;28;20048;-88
2023/09/13 15:03:06;;;;;;;13.52;9.50;;;;;;;;;;8426449;28;20083;-88
2023/09/13 15:07:34;;;;;;;11.20;8.57;;;;;;;;;;8449164;28;20602;-89
2023/09/13 15:11:39;;;;;;;16.80;10.02;;;;;;;;;;8404081;28;20085;-88
2023/09/13 15:15:47;;;;;;;12.18;9.65;;;;;;;;;;8400677;28;20404;-88
2023/09/13 15:19:53;;;;;;;12.63;9.90;;;;;;;;;;8392957;28;20056;-88
2023/09/13 15:23:59;;;;;;;15.50;10.45;;;;;;;;;;8402710;28;20476;-89
2023/09/13 15:28:05;;;;;;;14.13;9.77;;;;;;;;;;8417713;28;20125;-89
2023/09/13 15:32:14;;;;;;;14.75;10.65;;;;;;;;;;8394088;28;20044;-89
2023/09/13 15:36:18;;;;;;;14.20;10.10;;;;;;;;;;8420221;28;20079;-88
2023/09/13 15:40:24;;;;;;;18.55;10.85;;;;;;;;;;8401177;28;20100;-89
2023/09/13 15:44:28;;;;;;;15.95;11.52;;;;;;;;;;8393811;28;20042;-89
2023/09/13 15:48:36;;;;;;;16.15;11.57;;;;;;;;;;8393421;28;20133;-89
2023/09/13 15:52:44;;;;;;;22.25;13.90;;;;;;;;;;8402947;28;20072;-91
2023/09/13 15:56:52;;;;;;;21.33;13.45;;;;;;;;;;8401713;28;20075;-88
2023/09/13 16:00:56;;;;;;;30.60;15.70;;;;;;;;;;8398876;28;20059;-89
2023/09/13 16:05:04;;;;;;;33.95;17.17;;;;;;;;;;8399573;28;20526;-90
2023/09/13 16:09:08;;;;;;;43.88;22.10;;;;;;;;;;8394284;28;20217;-87
2023/09/13 16:13:12;;;;;;;49.40;24.65;;;;;;;;;;8393080;28;20047;-88
2023/09/13 16:17:16;;;;;;;53.22;26.75;;;;;;;;;;8405070;28;20063;-88
2023/09/13 16:21:27;;;;;;;87.10;38.13;;;;;;;;;;8394051;28;20481;-91
2023/09/13 16:25:32;;;;;;;68.72;32.72;;;;;;;;;;8390573;28;20053;-90
2023/09/13 16:29:37;;;;;;;57.15;28.52;;;;;;;;;;8402633;28;20071;-90
2023/09/13 16:33:41;;;;;;;41.53;23.58;;;;;;;;;;8404871;28;20088;-89
2023/09/13 16:37:47;;;;;;;33.63;21.30;;;;;;;;;;8390015;28;20060;-89
2023/09/13 16:41:55;;;;;;;31.83;20.17;;;;;;;;;;8396830;28;20540;-91
2023/09/13 16:46:00;;;;;;;36.47;21.92;;;;;;;;;;8420878;28;20078;-90
2023/09/13 16:50:04;;;;;;;25.90;15.95;;;;;;;;;;8401772;28;20080;-87
2023/09/13 16:54:10;;;;;;;33.95;21.35;;;;;;;;;;8405895;28;20048;-90
2023/09/13 16:58:15;;;;;;;27.20;19.13;;;;;;;;;;8402705;28;20093;-88
2023/09/13 17:02:19;;;;;;;25.10;18.63;;;;;;;;;;8385181;23;20063;-90
2023/09/13 17:06:23;;;;;;;18.42;15.82;;;;;;;;;;8390794;23;20586;-89
2023/09/13 17:10:30;;;;;;;29.27;22.05;;;;;;;;;;8362555;28;20075;-89
2023/09/13 17:14:34;;;;;;;31.13;19.13;;;;;;;;;;8373412;28;20053;-89
2023/09/13 17:18:38;;;;;;;60.60;29.85;;;;;;;;;;8368954;28;20539;-89
2023/09/13 17:22:43;;;;;;;225.82;71.10;;;;;;;;;;8373482;28;20049;-89
2023/09/13 17:26:48;;;;;;;236.38;73.70;;;;;;;;;;8371740;28;20140;-89
2023/09/13 17:30:54;;;;;;;128.38;45.58;;;;;;;;;;8365745;28;20106;-90
2023/09/13 17:34:57;;;;;;;130.63;47.30;;;;;;;;;;8374036;28;20048;-88
2023/09/13 17:39:00;;;;;;;141.30;58.58;;;;;;;;;;8375476;28;20056;-89
2023/09/13 17:43:08;;;;;;;33.80;20.58;;;;;;;;;;8365530;28;20048;-88
2023/09/13 17:47:12;;;;;;;26.00;18.85;;;;;;;;;;8382338;28;20139;-89
2023/09/13 17:51:17;;;;;;;39.25;23.23;;;;;;;;;;8372061;23;20110;-88
2023/09/13 17:55:22;;;;;;;33.10;21.17;;;;;;;;;;8349867;23;20050;-89
2023/09/13 17:59:28;;;;;;;31.15;20.75;;;;;;;;;;8290183;28;20062;-90
2023/09/13 18:03:34;;;;;;;43.45;27.60;;;;;;;;;;8292622;28;20107;-89
2023/09/13 18:07:40;;;;;;;25.75;18.10;;;;;;;;;;8291068;28;20505;-89
2023/09/13 18:11:46;;;;;;;25.73;18.55;;;;;;;;;;8282673;28;20058;-88
2023/09/13 18:15:59;;;;;;;41.40;23.25;;;;;;;;;;8296223;28;20061;-89
2023/09/13 18:20:07;;;;;;;66.68;33.63;;;;;;;;;;8268492;28;20050;-89
2023/09/13 18:24:13;;;;;;;27.75;17.65;;;;;;;;;;8277357;28;20053;-89
2023/09/13 18:28:17;;;;;;;18.92;14.93;;;;;;;;;;8288969;28;20174;-89
2023/09/13 18:32:29;;;;;;;21.48;12.10;;;;;;;;;;8283690;28;20053;-89
2023/09/13 18:36:36;;;;;;;15.65;10.57;;;;;;;;;;8284123;28;20486;-90
2023/09/13 18:40:41;;;;;;;15.95;10.10;;;;;;;;;;8288352;28;20057;-89
2023/09/13 18:44:45;;;;;;;16.52;11.05;;;;;;;;;;8271786;28;20076;-89
2023/09/13 18:48:51;;;;;;;16.98;12.45;;;;;;;;;;8278352;28;20046;-89
2023/09/13 18:52:57;;;;;;;19.15;13.35;;;;;;;;;;8259708;28;20231;-89
2023/09/13 18:57:13;;;;;;;20.85;13.18;;;;;;;;;;8241229;28;20142;-89
2023/09/13 19:01:30;;;;;;;23.48;14.52;;;;;;;;;;8244028;28;20043;-90
2023/09/13 19:06:03;;;;;;;22.45;14.48;;;;;;;;;;8351057;23;20046;-89
2023/09/13 19:15:03;;;;;;;31.48;17.40;;;;;;;;;;8311546;28;20041;-89
2023/09/13 19:19:25;;;;;;;31.05;17.98;;;;;;;;;;8328312;28;20405;-89
2023/09/13 19:23:46;;;;;;;36.50;20.35;;;;;;;;;;8308109;28;20406;-89
2023/09/13 19:27:53;;;;;;;28.23;19.27;;;;;;;;;;8322036;28;20067;-92
2023/09/13 19:32:01;;;;;;;43.35;21.25;;;;;;;;;;8311986;28;20464;-89
2023/09/13 19:36:21;;;;;;;32.55;21.13;;;;;;;;;;8313107;28;20180;-90
2023/09/13 19:40:38;;;;;;;33.42;20.42;;;;;;;;;;8313446;28;20148;-90
2023/09/13 19:44:43;;;;;;;32.55;18.83;;;;;;;;;;8313042;28;20053;-91
2023/09/13 19:48:48;;;;;;;18.98;15.05;;;;;;;;;;8313195;28;20199;-90
2023/09/13 19:53:00;;;;;;;22.27;14.32;;;;;;;;;;8312604;28;20053;-90
2023/09/13 19:57:14;;;;;;;20.20;14.48;;;;;;;;;;8330204;28;20053;-88
2023/09/13 20:01:20;;;;;;;21.63;15.25;;;;;;;;;;8299250;28;20056;-91
2023/09/13 20:05:27;;;;;;;23.17;16.00;;;;;;;;;;8330020;28;20045;-90
2023/09/13 20:09:32;;;;;;;22.02;15.18;;;;;;;;;;8322516;28;20495;-89
2023/09/13 20:13:41;;;;;;;19.00;14.27;;;;;;;;;;8326293;28;20046;-90
2023/09/13 20:17:45;;;;;;;19.92;13.60;;;;;;;;;;8322083;28;20056;-93
2023/09/13 20:21:49;;;;;;;19.98;15.25;;;;;;;;;;8282682;28;20053;-90
2023/09/13 20:25:54;;;;;;;21.15;14.57;;;;;;;;;;8269971;28;20061;-91
2023/09/13 20:30:02;;;;;;;22.33;14.63;;;;;;;;;;8281831;28;20057;-88
2023/09/13 20:34:07;;;;;;;20.48;13.35;;;;;;;;;;8299267;28;20053;-91
2023/09/13 20:38:20;;;;;;;22.77;14.77;;;;;;;;;;8293494;28;20042;-92
2023/09/13 20:42:23;;;;;;;18.90;14.05;;;;;;;;;;8300213;28;20042;-91
2023/09/13 20:46:31;;;;;;;20.33;15.13;;;;;;;;;;8297049;28;20042;-92
2023/09/13 20:50:34;;;;;;;22.48;14.52;;;;;;;;;;8296237;28;20041;-90
2023/09/13 20:54:42;;;;;;;21.38;14.30;;;;;;;;;;8273536;28;20065;-90
2023/09/13 20:58:46;;;;;;;19.05;13.98;;;;;;;;;;8275205;28;20074;-88
2023/09/13 21:03:06;;;;;;;22.40;16.83;;;;;;;;;;8296145;28;20042;-92
2023/09/13 21:07:09;;;;;;;23.15;16.25;;;;;;;;;;8306376;28;20069;-90
2023/09/13 21:11:12;;;;;;;22.90;16.83;;;;;;;;;;8326931;28;20089;-93
2023/09/13 21:15:16;;;;;;;22.50;17.13;;;;;;;;;;8312710;28;20433;-90
2023/09/13 21:19:20;;;;;;;22.90;16.85;;;;;;;;;;8330908;28;20244;-92
2023/09/13 21:23:23;;;;;;;21.73;16.10;;;;;;;;;;8322433;28;20601;-89
2023/09/13 21:27:27;;;;;;;25.83;18.38;;;;;;;;;;8325862;28;20057;-93
2023/09/13 21:31:29;;;;;;;25.83;18.15;;;;;;;;;;8370387;28;20045;-92
2023/09/13 21:35:34;;;;;;;24.35;18.60;;;;;;;;;;8371742;28;20055;-93
2023/09/13 21:39:37;;;;;;;26.63;18.33;;;;;;;;;;8368288;28;20045;-94
2023/09/13 21:43:40;;;;;;;27.95;19.15;;;;;;;;;;8360553;28;20156;-89
2023/09/13 21:47:43;;;;;;;25.52;17.02;;;;;;;;;;8364608;28;20049;-90
2023/09/13 21:51:47;;;;;;;27.13;17.67;;;;;;;;;;8346540;28;20046;-90
2023/09/13 21:55:56;;;;;;;29.80;19.43;;;;;;;;;;8308117;28;20057;-92
2023/09/13 22:00:00;;;;;;;31.63;20.80;;;;;;;;;;8317914;28;20421;-91
2023/09/13 22:04:03;;;;;;;26.23;19.73;;;;;;;;;;8321820;28;20123;-92
2023/09/13 22:08:08;;;;;;;33.40;21.70;;;;;;;;;;8334783;28;20489;-90
2023/09/13 22:12:11;;;;;;;30.77;20.65;;;;;;;;;;8327617;28;20390;-91
2023/09/13 22:16:20;;;;;;;28.73;19.40;;;;;;;;;;8317625;28;20503;-90
2023/09/13 22:20:24;;;;;;;29.52;19.25;;;;;;;;;;8318028;28;20073;-92
2023/09/13 22:24:28;;;;;;;27.48;18.42;;;;;;;;;;8319979;28;20538;-90
2023/09/13 22:28:31;;;;;;;30.90;19.02;;;;;;;;;;8333676;28;20508;-94
2023/09/13 22:32:35;;;;;;;33.67;23.38;;;;;;;;;;8295703;28;20053;-90
2023/09/13 22:36:37;;;;;;;35.47;22.48;;;;;;;;;;8316590;28;20505;-94
2023/09/13 22:40:42;;;;;;;38.60;21.92;;;;;;;;;;8319859;28;20493;-91
2023/09/13 22:44:45;;;;;;;44.75;23.75;;;;;;;;;;8320448;28;20056;-92
2023/09/13 22:48:49;;;;;;;37.85;23.92;;;;;;;;;;8309440;28;20119;-91
2023/09/13 22:52:52;;;;;;;39.95;23.30;;;;;;;;;;8309309;28;20553;-92
2023/09/13 22:56:58;;;;;;;43.50;25.67;;;;;;;;;;8322743;28;20120;-91
2023/09/13 23:01:09;;;;;;;46.75;25.52;;;;;;;;;;8330630;28;20124;-91
2023/09/13 23:05:12;;;;;;;46.55;24.95;;;;;;;;;;8332460;28;20481;-90
2023/09/13 23:09:32;;;;;;;46.97;26.52;;;;;;;;;;8310971;28;20060;-94
2023/09/13 23:13:38;;;;;;;46.65;25.23;;;;;;;;;;8317998;28;20049;-93
2023/09/13 23:17:41;;;;;;;46.67;24.75;;;;;;;;;;8307178;28;20073;-92
2023/09/13 23:21:44;;;;;;;38.38;23.70;;;;;;;;;;8300975;28;20049;-92
2023/09/13 23:25:57;;;;;;;41.33;24.08;;;;;;;;;;8282542;28;20060;-91
2023/09/13 23:30:01;;;;;;;48.38;25.58;;;;;;;;;;8285501;28;20062;-93
2023/09/13 23:34:05;;;;;;;49.15;26.45;;;;;;;;;;8308979;28;20049;-91
2023/09/13 23:38:09;;;;;;;47.33;24.17;;;;;;;;;;8290572;28;20544;-91
2023/09/13 23:42:12;;;;;;;42.13;24.55;;;;;;;;;;8293225;28;20490;-92
2023/09/13 23:46:17;;;;;;;48.13;25.17;;;;;;;;;;8280318;28;20072;-94
2023/09/13 23:50:20;;;;;;;41.92;24.75;;;;;;;;;;8290053;28;20042;-92
2023/09/13 23:58:40;;;;;;;49.75;25.45;;;;;;;;;;8346913;23;20045;-91
